Burlington, VT

7:25 PM EST on December 25, 2014 (GMT -0500)
Lakeside Ave | Change Station
CLOSE
Current Station
Personal Weather Station
Location: BURLINGTON, VT
Elevation: 112 ft
Nearby Weather Stations

Elev 112 ft 44.46 °N, 73.22 °W | Updated 5 seconds ago

Mostly Cloudy
Mostly Cloudy
44.1 °F
Feels Like 38 °F
N
13.0
Wind Variable Wind from West
Gusts 15.0 mph

Today
High -- | Low -- °F
--% Chance of Precip.
Yesterday
High -- | Low -- °F
Precip. -- in
7:27 AM 4:18 PM
Waxing Crescent, 20% visible
Pressure 29.81 in
Visibility 10.0 miles
Clouds Mostly Cloudy 4800 ft
Windchill 38 °F
Dew Point 33 °F
Humidity 65%
Rainfall 0.09 in
Snow Depth Not available.
UV 0 out of 12
Pollen .10 out of 12
Air Quality Not available.
Flu Activity Not available.
METAR KBTV 252354Z 26014G25KT 10SM BKN048 06/M03 A2980 RMK AO2 PK WND 25033/2326 SLP094 4/001 60000 T00611033 10083 20061 51037

More Conditions Fewer Conditions

Pressure 29.81 in
Visibility 10.0 miles
Clouds Mostly Cloudy 4800 ft
Windchill 38 °F
Dew Point 33 °F
Humidity 65%
Rainfall 0.09 in
Snow Depth Not available.
UV 0 out of 12
Pollen .10 out of 12
Air Quality Not available.
Flu Activity Not available.
METAR KBTV 252354Z 26014G25KT 10SM BKN048 06/M03 A2980 RMK AO2 PK WND 25033/2326 SLP094 4/001 60000 T00611033 10083 20061 51037

More Conditions Fewer Conditions

10-Day Weather Forecast

Almanac

Astronomy

Dec. 25, 2014 Rise Set
Actual Time
Civil Twilight
Nautical Twilight
Astronomical Twilight
Moon
Length of Visible Light
Length of Day
Tomorrow will be .
, % of the Moon is Illuminated

Today's Extremes

State Highs State Lows

Community

WunderPhotos

Upload Photos

1,780,474 photos uploaded!

WunderBlogs® & News

Nearby

Air Quality

  Air Quality AQ Index Pollutant
Not available.

Snow Depth

Station Depth Elevation

Earthquake Activity

City Distance Mag. Time & Date
Minimum magnitude displayed is 2.5.

Coastal Water Temperatures

Place Temperature

Nearby Weather Stations